Time;durP1;ratioP1;P1;durP2;ratioP2;P2;SDS_P1;SDS_P2;PMS_P1;PMS_P2;Temp;Humidity;BMP_temperature;BMP_pressure;BME280_temperature;BME280_humidity;BME280_pressure;Samples;Min_cycle;Max_cycle;Signal;HPM_P1;HPM_P2
2023/09/22 14:39:50;;;;;;;4.28;1.10;;;;;;;;;;7277145;19;20022;-72
2023/09/22 17:01:11;;;;;;;5.22;1.38;;;;;;;;;;7263776;19;20034;-76
2023/09/22 17:03:37;;;;;;;4.82;1.40;;;;;;;;;;7302485;19;20507;-76
2023/09/22 17:06:02;;;;;;;6.50;1.42;;;;;;;;;;7337839;19;20010;-75
2023/09/22 17:08:27;;;;;;;4.80;1.40;;;;;;;;;;7347695;19;20063;-74
2023/09/22 17:10:53;;;;;;;6.30;1.83;;;;;;;;;;7346084;19;20006;-75
2023/09/22 17:13:18;;;;;;;5.80;1.77;;;;;;;;;;7357511;19;20496;-75
2023/09/22 17:15:43;;;;;;;3.38;1.20;;;;;;;;;;7356497;19;20223;-75
2023/09/22 17:18:10;;;;;;;4.65;1.40;;;;;;;;;;7341989;19;20704;-75
2023/09/22 17:20:35;;;;;;;5.07;1.30;;;;;;;;;;7353266;19;20015;-75
2023/09/22 17:23:01;;;;;;;5.55;1.10;;;;;;;;;;7349870;19;19999;-75
2023/09/22 17:25:26;;;;;;;4.75;1.48;;;;;;;;;;7346206;19;20062;-75
2023/09/22 17:27:51;;;;;;;5.63;1.40;;;;;;;;;;7356657;19;20468;-75
2023/09/22 17:30:17;;;;;;;3.97;1.30;;;;;;;;;;7351829;19;20019;-73
2023/09/22 17:32:42;;;;;;;4.60;1.50;;;;;;;;;;7338083;19;20010;-75
2023/09/22 17:35:08;;;;;;;5.32;1.60;;;;;;;;;;7336220;19;20574;-73
2023/09/22 17:37:33;;;;;;;5.18;1.40;;;;;;;;;;7345964;19;20611;-74
2023/09/22 17:39:58;;;;;;;5.03;1.70;;;;;;;;;;7325850;19;20027;-75
2023/09/22 17:42:23;;;;;;;4.53;1.50;;;;;;;;;;7339694;19;20826;-73
2023/09/22 17:44:49;;;;;;;4.93;1.80;;;;;;;;;;7346749;19;20511;-75
2023/09/22 17:47:14;;;;;;;5.25;1.67;;;;;;;;;;7261832;19;20474;-74
2023/09/22 17:49:39;;;;;;;6.53;2.03;;;;;;;;;;7327016;19;21187;-74
2023/09/22 17:52:05;;;;;;;5.15;1.67;;;;;;;;;;7334740;19;20243;-75
2023/09/22 17:54:30;;;;;;;5.82;2.28;;;;;;;;;;7349535;19;20003;-74
2023/09/22 17:56:55;;;;;;;6.77;1.87;;;;;;;;;;7338117;19;20002;-75
2023/09/22 17:59:20;;;;;;;5.88;1.90;;;;;;;;;;7354934;19;20509;-72
2023/09/22 18:01:51;;;;;;;4.35;1.73;;;;;;;;;;7343854;19;20035;-76
2023/09/22 18:04:17;;;;;;;4.82;1.50;;;;;;;;;;7302470;19;20595;-75
2023/09/22 18:06:42;;;;;;;5.22;1.60;;;;;;;;;;7354181;19;20128;-74
2023/09/22 18:09:08;;;;;;;5.18;1.40;;;;;;;;;;7354669;19;20537;-74
2023/09/22 18:11:33;;;;;;;5.22;1.33;;;;;;;;;;7337295;19;20025;-74
2023/09/22 18:14:00;;;;;;;4.45;1.20;;;;;;;;;;7327136;19;20002;-75
2023/09/22 18:16:25;;;;;;;2.88;1.17;;;;;;;;;;7336682;19;20455;-74
2023/09/22 18:18:51;;;;;;;4.88;1.20;;;;;;;;;;7352066;19;20346;-74
2023/09/22 18:21:16;;;;;;;7.80;1.60;;;;;;;;;;7355425;19;19995;-75
2023/09/22 18:23:41;;;;;;;5.67;1.50;;;;;;;;;;7357726;19;20476;-73
2023/09/22 18:26:06;;;;;;;3.95;1.50;;;;;;;;;;7317135;19;20613;-74
2023/09/22 18:28:32;;;;;;;4.82;1.40;;;;;;;;;;7339256;19;19995;-74
2023/09/22 18:30:58;;;;;;;4.22;1.67;;;;;;;;;;7318529;19;20003;-75
2023/09/22 18:33:24;;;;;;;3.38;1.40;;;;;;;;;;7330273;19;20852;-76
2023/09/22 18:35:58;;;;;;;4.43;1.80;;;;;;;;;;7332175;19;20299;-75
2023/09/22 18:38:23;;;;;;;4.25;1.70;;;;;;;;;;7339757;19;20603;-74
2023/09/22 18:40:49;;;;;;;4.47;1.63;;;;;;;;;;7331714;19;20413;-76
2023/09/22 18:43:14;;;;;;;4.22;1.60;;;;;;;;;;7310129;19;19998;-75
2023/09/22 18:45:39;;;;;;;5.18;1.88;;;;;;;;;;7344734;19;19998;-76
2023/09/22 18:48:05;;;;;;;4.68;1.90;;;;;;;;;;7337760;19;20003;-76
2023/09/22 18:50:30;;;;;;;4.63;1.65;;;;;;;;;;7344880;19;20583;-75
2023/09/22 18:52:55;;;;;;;3.22;1.35;;;;;;;;;;7340972;19;20041;-75
2023/09/22 18:55:21;;;;;;;4.55;1.50;;;;;;;;;;7337420;19;20002;-74
2023/09/22 18:57:46;;;;;;;4.45;1.38;;;;;;;;;;7349558;19;20484;-75
2023/09/22 19:00:13;;;;;;;4.83;1.47;;;;;;;;;;7341798;19;20444;-75
2023/09/22 19:02:38;;;;;;;2.22;1.00;;;;;;;;;;7342327;19;20622;-74
2023/09/22 19:05:05;;;;;;;3.20;1.15;;;;;;;;;;7337539;19;20002;-74
2023/09/22 19:07:30;;;;;;;2.17;0.88;;;;;;;;;;7336136;19;20034;-76
2023/09/22 19:09:55;;;;;;;2.40;0.93;;;;;;;;;;7347200;19;19999;-75
2023/09/22 19:12:20;;;;;;;3.13;1.10;;;;;;;;;;7332537;19;20240;-75
2023/09/22 19:14:46;;;;;;;2.17;0.90;;;;;;;;;;7351835;19;20026;-76
2023/09/22 19:17:11;;;;;;;2.53;1.00;;;;;;;;;;7341008;19;20351;-76
2023/09/22 19:19:36;;;;;;;3.75;0.98;;;;;;;;;;7350630;19;20244;-75
2023/09/22 19:22:02;;;;;;;3.50;1.20;;;;;;;;;;7344828;19;20006;-75
2023/09/22 19:24:28;;;;;;;3.15;1.00;;;;;;;;;;7349506;19;20013;-76
2023/09/22 19:26:53;;;;;;;3.42;1.20;;;;;;;;;;7346766;19;20266;-75
2023/09/22 19:29:19;;;;;;;3.10;1.13;;;;;;;;;;7341742;19;20690;-74
2023/09/22 19:31:44;;;;;;;4.38;1.30;;;;;;;;;;7339422;19;20030;-74
2023/09/22 19:34:09;;;;;;;3.42;0.95;;;;;;;;;;7343362;19;20392;-74
2023/09/22 19:36:35;;;;;;;3.88;1.40;;;;;;;;;;7350965;19;20002;-75
2023/09/22 19:39:04;;;;;;;3.10;1.30;;;;;;;;;;7354919;19;20025;-74
2023/09/22 19:41:30;;;;;;;4.72;1.55;;;;;;;;;;7341621;19;20010;-75
2023/09/22 19:43:56;;;;;;;3.85;1.30;;;;;;;;;;7345473;19;20143;-75
2023/09/22 19:46:23;;;;;;;3.72;1.40;;;;;;;;;;7352199;19;20826;-74
2023/09/22 19:48:48;;;;;;;3.35;1.58;;;;;;;;;;7351854;19;20464;-74
2023/09/22 19:51:14;;;;;;;2.75;1.40;;;;;;;;;;7348407;19;20013;-75
2023/09/22 19:53:41;;;;;;;3.67;1.45;;;;;;;;;;7341989;19;20006;-75
2023/09/22 19:56:06;;;;;;;3.38;1.40;;;;;;;;;;7332297;19;20103;-75
2023/09/22 19:58:31;;;;;;;4.10;1.40;;;;;;;;;;7348731;19;20010;-75
2023/09/22 20:00:56;;;;;;;3.30;1.30;;;;;;;;;;7342604;19;20490;-75
2023/09/22 20:03:22;;;;;;;3.30;1.60;;;;;;;;;;7335355;19;20231;-75
2023/09/22 20:05:51;;;;;;;4.47;1.45;;;;;;;;;;7337738;19;20678;-75
2023/09/22 20:08:17;;;;;;;3.22;1.55;;;;;;;;;;7344121;19;20103;-75
2023/09/22 20:10:42;;;;;;;4.22;1.65;;;;;;;;;;7334690;19;20569;-75
2023/09/22 20:13:08;;;;;;;4.20;1.67;;;;;;;;;;7338037;19;20423;-75
2023/09/22 20:15:34;;;;;;;3.53;1.42;;;;;;;;;;7341087;19;20297;-75
2023/09/22 20:17:59;;;;;;;4.60;1.70;;;;;;;;;;7347237;19;20011;-75
2023/09/22 20:20:24;;;;;;;3.33;1.33;;;;;;;;;;7339502;19;20372;-76
2023/09/22 20:22:50;;;;;;;4.77;1.87;;;;;;;;;;7339895;19;19994;-75
2023/09/22 20:25:16;;;;;;;3.92;1.70;;;;;;;;;;7329451;19;20767;-75
2023/09/22 20:27:41;;;;;;;4.13;1.93;;;;;;;;;;7346224;19;19991;-75
2023/09/22 20:30:06;;;;;;;4.63;1.77;;;;;;;;;;7347240;19;20712;-75
2023/09/22 20:32:32;;;;;;;4.35;1.92;;;;;;;;;;7346474;19;20461;-74
2023/09/22 20:34:57;;;;;;;4.32;2.20;;;;;;;;;;7340351;19;20388;-75
2023/09/22 20:37:22;;;;;;;4.40;1.95;;;;;;;;;;7342407;19;20014;-74
2023/09/22 20:39:49;;;;;;;4.60;2.10;;;;;;;;;;7342686;19;20084;-74
2023/09/22 20:42:14;;;;;;;5.18;2.30;;;;;;;;;;7334451;19;20003;-74
2023/09/22 20:44:39;;;;;;;5.00;2.15;;;;;;;;;;7345221;19;20777;-75
2023/09/22 20:47:05;;;;;;;4.20;2.00;;;;;;;;;;7352403;19;20372;-75
2023/09/22 20:49:30;;;;;;;6.00;2.13;;;;;;;;;;7350531;19;20244;-75
2023/09/22 20:51:56;;;;;;;6.97;2.30;;;;;;;;;;7349210;19;20009;-74
2023/09/22 20:54:22;;;;;;;5.18;2.08;;;;;;;;;;7349351;19;20220;-75
2023/09/22 20:56:47;;;;;;;4.13;2.10;;;;;;;;;;7342168;19;20404;-74
2023/09/22 20:59:13;;;;;;;5.78;2.05;;;;;;;;;;7349211;19;20368;-75
2023/09/22 21:01:40;;;;;;;5.80;2.45;;;;;;;;;;7350302;19;20082;-74
2023/09/22 21:04:08;;;;;;;4.32;2.13;;;;;;;;;;7348167;19;20038;-75
2023/09/22 21:06:34;;;;;;;5.55;2.38;;;;;;;;;;7354294;19;20126;-75
2023/09/22 21:08:59;;;;;;;5.57;2.30;;;;;;;;;;7348667;19;20503;-75
2023/09/22 21:11:24;;;;;;;4.03;1.83;;;;;;;;;;7344863;19;20506;-76
2023/09/22 21:13:50;;;;;;;4.13;1.80;;;;;;;;;;7353245;19;20563;-74
2023/09/22 21:16:17;;;;;;;6.05;1.60;;;;;;;;;;7352698;19;20042;-75
2023/09/22 21:18:42;;;;;;;3.72;1.80;;;;;;;;;;7349603;19;20026;-74
2023/09/22 21:21:07;;;;;;;3.63;1.30;;;;;;;;;;7350751;19;20335;-74
2023/09/22 21:23:34;;;;;;;5.60;1.60;;;;;;;;;;7357628;19;20477;-75
2023/09/22 21:26:01;;;;;;;3.35;1.33;;;;;;;;;;7346213;19;20321;-74
2023/09/22 21:28:27;;;;;;;4.18;1.77;;;;;;;;;;7340333;19;20011;-74
2023/09/22 21:30:56;;;;;;;3.20;1.30;;;;;;;;;;7352468;19;19999;-75
2023/09/22 21:33:22;;;;;;;5.00;1.30;;;;;;;;;;7322612;19;20018;-73
2023/09/22 21:35:47;;;;;;;4.43;1.60;;;;;;;;;;7350953;19;20002;-75
2023/09/22 21:38:12;;;;;;;5.53;1.67;;;;;;;;;;7346066;19;20067;-75
2023/09/22 21:40:37;;;;;;;3.90;1.73;;;;;;;;;;7352426;19;21184;-74
2023/09/22 21:43:04;;;;;;;3.73;1.57;;;;;;;;;;7338702;19;19995;-75
2023/09/22 21:45:31;;;;;;;3.92;1.50;;;;;;;;;;7342353;19;20251;-74
2023/09/22 21:47:56;;;;;;;3.78;1.45;;;;;;;;;;7354361;19;20065;-74
2023/09/22 21:50:21;;;;;;;3.85;1.60;;;;;;;;;;7341133;19;20066;-75
2023/09/22 21:52:47;;;;;;;2.83;1.37;;;;;;;;;;7360754;19;20003;-74
2023/09/22 21:55:15;;;;;;;5.18;1.85;;;;;;;;;;7302697;19;20291;-85
2023/09/22 21:57:40;;;;;;;5.15;1.80;;;;;;;;;;7353289;19;19998;-81
2023/09/22 22:00:09;;;;;;;4.47;1.75;;;;;;;;;;7348358;19;20023;-84
2023/09/22 22:02:34;;;;;;;5.28;1.70;;;;;;;;;;7340794;19;20030;-84
2023/09/22 22:05:00;;;;;;;4.53;1.60;;;;;;;;;;7357788;19;19998;-82
2023/09/22 22:07:30;;;;;;;5.22;2.00;;;;;;;;;;7358225;19;20472;-80
2023/09/22 22:09:57;;;;;;;5.45;2.03;;;;;;;;;;7339255;19;20351;-85
2023/09/22 22:12:23;;;;;;;5.40;1.70;;;;;;;;;;7356422;19;20539;-81
2023/09/22 22:14:49;;;;;;;3.90;1.85;;;;;;;;;;7344973;19;20318;-79
2023/09/22 22:17:14;;;;;;;3.75;1.40;;;;;;;;;;7354051;19;20023;-83
2023/09/22 22:19:40;;;;;;;5.40;1.80;;;;;;;;;;7358614;19;20430;-79
2023/09/22 22:22:06;;;;;;;5.17;2.00;;;;;;;;;;7361991;19;19995;-82
2023/09/22 22:24:32;;;;;;;4.20;1.88;;;;;;;;;;7360503;19;20247;-85
2023/09/22 22:27:00;;;;;;;5.47;2.00;;;;;;;;;;7358209;19;20007;-82
2023/09/22 22:29:25;;;;;;;6.20;1.90;;;;;;;;;;7354337;19;20118;-79
2023/09/22 22:31:50;;;;;;;5.20;2.20;;;;;;;;;;7361396;19;20132;-80
2023/09/22 22:34:16;;;;;;;5.10;2.13;;;;;;;;;;7354543;19;20512;-79
2023/09/22 22:36:41;;;;;;;4.53;1.90;;;;;;;;;;7364053;19;20014;-84
2023/09/22 22:39:11;;;;;;;5.93;2.35;;;;;;;;;;7367296;19;20002;-78
2023/09/22 22:41:36;;;;;;;4.75;2.33;;;;;;;;;;7351496;19;20400;-80
2023/09/22 22:44:01;;;;;;;6.10;2.20;;;;;;;;;;7360400;19;20050;-79
2023/09/22 22:46:27;;;;;;;5.40;2.50;;;;;;;;;;7354375;19;20425;-80
2023/09/22 22:48:54;;;;;;;4.60;2.40;;;;;;;;;;7361839;19;20007;-78
2023/09/22 22:51:19;;;;;;;6.03;2.70;;;;;;;;;;7362766;19;20015;-80
2023/09/22 22:53:44;;;;;;;5.27;2.60;;;;;;;;;;7361302;19;19998;-78
2023/09/22 22:56:10;;;;;;;6.50;2.53;;;;;;;;;;7352997;19;20262;-79
2023/09/22 22:58:37;;;;;;;4.50;2.40;;;;;;;;;;7364138;19;20027;-78
2023/09/22 23:01:03;;;;;;;4.88;2.50;;;;;;;;;;7365494;19;20018;-81
2023/09/22 23:03:29;;;;;;;5.43;2.47;;;;;;;;;;7354703;19;20270;-80
2023/09/22 23:05:56;;;;;;;5.32;2.75;;;;;;;;;;7362616;19;20006;-81
2023/09/22 23:08:23;;;;;;;6.25;2.70;;;;;;;;;;7360930;19;20014;-81
2023/09/22 23:10:48;;;;;;;5.65;2.80;;;;;;;;;;7358198;19;20407;-82
2023/09/22 23:13:14;;;;;;;6.55;2.70;;;;;;;;;;7363869;19;20116;-77
2023/09/22 23:15:41;;;;;;;7.53;3.00;;;;;;;;;;7362471;19;20034;-79
2023/09/22 23:18:06;;;;;;;8.48;2.92;;;;;;;;;;7359361;19;20003;-81
2023/09/22 23:20:37;;;;;;;7.68;3.67;;;;;;;;;;7361486;19;20413;-83
2023/09/22 23:23:03;;;;;;;7.57;3.58;;;;;;;;;;7362673;19;20002;-80
2023/09/22 23:25:33;;;;;;;7.60;3.63;;;;;;;;;;7352863;19;20034;-78
2023/09/22 23:28:00;;;;;;;6.43;3.33;;;;;;;;;;7363849;19;20005;-79
2023/09/22 23:30:25;;;;;;;8.52;4.00;;;;;;;;;;7361507;19;19995;-81
2023/09/22 23:32:50;;;;;;;7.68;3.25;;;;;;;;;;7355587;19;19995;-81
2023/09/22 23:35:16;;;;;;;5.63;3.60;;;;;;;;;;7361644;19;20003;-82
2023/09/22 23:37:42;;;;;;;7.10;3.75;;;;;;;;;;7366056;19;20026;-79
2023/09/22 23:40:07;;;;;;;6.77;4.07;;;;;;;;;;7361329;19;19995;-79
2023/09/22 23:42:37;;;;;;;10.07;3.92;;;;;;;;;;7356533;19;20255;-78
2023/09/22 23:45:05;;;;;;;8.85;3.83;;;;;;;;;;7356838;19;19998;-80
2023/09/22 23:47:30;;;;;;;7.57;4.00;;;;;;;;;;7356402;19;20476;-82
2023/09/22 23:49:56;;;;;;;6.28;3.42;;;;;;;;;;7360822;19;19999;-79
2023/09/22 23:52:21;;;;;;;7.07;3.78;;;;;;;;;;7359726;19;20010;-79
2023/09/22 23:54:47;;;;;;;7.40;4.30;;;;;;;;;;7361019;19;20336;-80
2023/09/22 23:57:12;;;;;;;6.90;4.18;;;;;;;;;;7355828;19;20014;-77
2023/09/22 23:59:39;;;;;;;8.80;4.00;;;;;;;;;;7360208;19;20725;-78
